Terminal Aerodrome Forecast
Issued by NWS

Current Version | Previous Version | Graphics & Text | Print | Product List | Glossary On
Versions: 1 2 3 4 5 6 7 8 9 10 11 12 13 14 15 16 17 18 19 20 21 22 23 24 25 26
000
FTUS41 KPBZ 221100
TAFHLG
TAF
KHLG 221130Z 2212/2312 VRB03KT 3SM BR SCT004 OVC035
      TEMPO 2212/2214 1 1/2SM BR BKN004
     FM221400 VRB03KT 6SM BR BKN020
     FM221700 20005KT P6SM VCSH BKN035
     FM230700 VRB03KT 2SM BR SCT030=

USA.gov is the U.S. government's official web portal to all federal, state and local government web resources and services.